sensor_id;sensor_type;location;lat;lon;timestamp;pressure;altitude;pressure_sealevel;temperature;humidity
74218;BME280;62579;47.288;18.646;2022-10-16T00:01:10;100346.25;;;13.69;72.59
74218;BME280;62579;47.288;18.646;2022-10-16T00:03:36;100354.16;;;13.78;72.17
74218;BME280;62579;47.288;18.646;2022-10-16T00:06:02;100339.53;;;13.70;72.52
74218;BME280;62579;47.288;18.646;2022-10-16T00:08:27;100342.47;;;13.78;72.12
74218;BME280;62579;47.288;18.646;2022-10-16T00:10:58;100343.72;;;13.77;72.08
74218;BME280;62579;47.288;18.646;2022-10-16T00:13:23;100350.19;;;13.79;72.02
74218;BME280;62579;47.288;18.646;2022-10-16T00:32:48;100355.19;;;13.70;72.09
74218;BME280;62579;47.288;18.646;2022-10-16T00:35:13;100363.41;;;13.70;71.84
74218;BME280;62579;47.288;18.646;2022-10-16T00:37:39;100364.41;;;13.67;71.87
74218;BME280;62579;47.288;18.646;2022-10-16T00:40:04;100363.44;;;13.64;71.86
74218;BME280;62579;47.288;18.646;2022-10-16T00:42:29;100358.47;;;13.63;71.87
74218;BME280;62579;47.288;18.646;2022-10-16T00:44:56;100366.69;;;13.63;71.81
74218;BME280;62579;47.288;18.646;2022-10-16T00:47:28;100369.66;;;13.59;72.04
74218;BME280;62579;47.288;18.646;2022-10-16T00:49:55;100373.41;;;13.56;72.04
74218;BME280;62579;47.288;18.646;2022-10-16T00:52:22;100365.22;;;13.51;72.09
74218;BME280;62579;47.288;18.646;2022-10-16T00:54:48;100369.28;;;13.33;73.10
74218;BME280;62579;47.288;18.646;2022-10-16T00:57:15;100372.50;;;13.32;72.69
74218;BME280;62579;47.288;18.646;2022-10-16T00:59:40;100375.00;;;13.24;72.55
74218;BME280;62579;47.288;18.646;2022-10-16T01:02:07;100376.28;;;13.17;72.57
74218;BME280;62579;47.288;18.646;2022-10-16T01:04:37;100381.03;;;13.11;72.69
74218;BME280;62579;47.288;18.646;2022-10-16T01:12:01;100384.75;;;12.86;73.50
74218;BME280;62579;47.288;18.646;2022-10-16T01:17:23;100380.03;;;12.76;73.67
74218;BME280;62579;47.288;18.646;2022-10-16T01:22:21;100390.72;;;12.74;73.91
74218;BME280;62579;47.288;18.646;2022-10-16T01:24:50;100392.72;;;12.73;74.32
74218;BME280;62579;47.288;18.646;2022-10-16T01:27:28;100390.22;;;12.70;74.15
74218;BME280;62579;47.288;18.646;2022-10-16T01:32:52;100388.00;;;12.68;74.18
74218;BME280;62579;47.288;18.646;2022-10-16T01:37:51;100398.41;;;12.70;73.65
74218;BME280;62579;47.288;18.646;2022-10-16T01:40:19;100395.94;;;12.72;73.62
74218;BME280;62579;47.288;18.646;2022-10-16T01:45:39;100408.62;;;12.69;73.61
74218;BME280;62579;47.288;18.646;2022-10-16T01:48:05;100409.84;;;12.62;73.90
74218;BME280;62579;47.288;18.646;2022-10-16T01:50:34;100411.81;;;12.56;73.97
74218;BME280;62579;47.288;18.646;2022-10-16T01:53:00;100414.28;;;12.49;74.28
74218;BME280;62579;47.288;18.646;2022-10-16T01:55:31;100411.28;;;12.25;74.89
74218;BME280;62579;47.288;18.646;2022-10-16T01:57:58;100415.75;;;12.17;75.13
74218;BME280;62579;47.288;18.646;2022-10-16T02:00:24;100414.00;;;12.14;75.19
74218;BME280;62579;47.288;18.646;2022-10-16T02:02:51;100416.72;;;12.14;74.54
74218;BME280;62579;47.288;18.646;2022-10-16T02:07:46;100416.66;;;11.97;75.42
74218;BME280;62579;47.288;18.646;2022-10-16T02:10:12;100420.91;;;11.98;75.19
74218;BME280;62579;47.288;18.646;2022-10-16T02:12:38;100419.41;;;11.97;74.94
74218;BME280;62579;47.288;18.646;2022-10-16T02:15:04;100417.94;;;12.01;74.73
74218;BME280;62579;47.288;18.646;2022-10-16T02:17:30;100419.66;;;11.99;75.02
74218;BME280;62579;47.288;18.646;2022-10-16T02:19:55;100420.41;;;12.05;74.95
74218;BME280;62579;47.288;18.646;2022-10-16T02:22:28;100425.62;;;12.03;75.06
74218;BME280;62579;47.288;18.646;2022-10-16T02:25:15;100424.88;;;12.02;74.92
74218;BME280;62579;47.288;18.646;2022-10-16T02:27:47;100432.81;;;12.00;75.41
74218;BME280;62579;47.288;18.646;2022-10-16T02:30:19;100437.94;;;11.82;76.33
74218;BME280;62579;47.288;18.646;2022-10-16T02:32:46;100433.13;;;11.60;76.72
74218;BME280;62579;47.288;18.646;2022-10-16T02:35:13;100440.25;;;11.52;76.19
74218;BME280;62579;47.288;18.646;2022-10-16T02:37:39;100439.22;;;11.44;76.04
74218;BME280;62579;47.288;18.646;2022-10-16T02:40:05;100442.94;;;11.41;76.10
74218;BME280;62579;47.288;18.646;2022-10-16T02:42:35;100443.06;;;11.21;76.63
74218;BME280;62579;47.288;18.646;2022-10-16T02:45:03;100440.56;;;11.17;76.56
74218;BME280;62579;47.288;18.646;2022-10-16T02:47:29;100443.44;;;11.08;77.03
74218;BME280;62579;47.288;18.646;2022-10-16T02:49:54;100442.41;;;11.00;77.30
74218;BME280;62579;47.288;18.646;2022-10-16T02:52:19;100433.22;;;10.98;77.62
74218;BME280;62579;47.288;18.646;2022-10-16T02:54:44;100445.12;;;11.00;77.21
74218;BME280;62579;47.288;18.646;2022-10-16T02:57:10;100443.16;;;11.01;76.79
74218;BME280;62579;47.288;18.646;2022-10-16T02:59:40;100453.50;;;10.91;77.10
74218;BME280;62579;47.288;18.646;2022-10-16T03:02:05;100449.31;;;10.96;76.89
74218;BME280;62579;47.288;18.646;2022-10-16T03:04:30;100445.84;;;10.95;76.96
74218;BME280;62579;47.288;18.646;2022-10-16T03:06:56;100455.97;;;10.89;77.19
74218;BME280;62579;47.288;18.646;2022-10-16T03:09:21;100456.22;;;10.91;76.77
74218;BME280;62579;47.288;18.646;2022-10-16T03:11:46;100459.91;;;10.88;76.77
74218;BME280;62579;47.288;18.646;2022-10-16T03:14:11;100462.00;;;10.73;77.12
74218;BME280;62579;47.288;18.646;2022-10-16T03:16:37;100463.56;;;10.54;78.06
74218;BME280;62579;47.288;18.646;2022-10-16T03:19:02;100466.81;;;10.32;78.94
74218;BME280;62579;47.288;18.646;2022-10-16T03:21:27;100467.59;;;10.38;78.63
74218;BME280;62579;47.288;18.646;2022-10-16T03:23:52;100466.00;;;10.52;77.60
74218;BME280;62579;47.288;18.646;2022-10-16T03:26:17;100471.56;;;10.63;77.05
74218;BME280;62579;47.288;18.646;2022-10-16T03:28:43;100476.09;;;10.71;76.73
74218;BME280;62579;47.288;18.646;2022-10-16T03:31:08;100475.62;;;10.73;77.56
74218;BME280;62579;47.288;18.646;2022-10-16T03:33:33;100476.84;;;10.72;78.47
74218;BME280;62579;47.288;18.646;2022-10-16T03:35:58;100482.03;;;10.70;78.41
74218;BME280;62579;47.288;18.646;2022-10-16T03:38:24;100476.91;;;10.77;77.73
74218;BME280;62579;47.288;18.646;2022-10-16T03:40:49;100480.06;;;10.76;77.73
74218;BME280;62579;47.288;18.646;2022-10-16T03:43:14;100491.16;;;10.67;78.19
74218;BME280;62579;47.288;18.646;2022-10-16T03:45:39;100492.56;;;10.62;78.66
74218;BME280;62579;47.288;18.646;2022-10-16T03:48:05;100493.97;;;10.52;78.67
74218;BME280;62579;47.288;18.646;2022-10-16T03:50:30;100487.09;;;10.57;78.15
74218;BME280;62579;47.288;18.646;2022-10-16T03:52:55;100500.47;;;10.60;77.75
74218;BME280;62579;47.288;18.646;2022-10-16T03:55:20;100494.28;;;10.60;77.95
74218;BME280;62579;47.288;18.646;2022-10-16T03:57:46;100502.13;;;10.52;78.28
74218;BME280;62579;47.288;18.646;2022-10-16T04:00:11;100499.22;;;10.36;78.39
74218;BME280;62579;47.288;18.646;2022-10-16T04:02:37;100510.47;;;10.23;79.03
74218;BME280;62579;47.288;18.646;2022-10-16T04:05:02;100508.50;;;10.23;79.13
74218;BME280;62579;47.288;18.646;2022-10-16T04:07:27;100504.78;;;10.21;79.15
74218;BME280;62579;47.288;18.646;2022-10-16T04:09:53;100509.78;;;10.28;78.62
74218;BME280;62579;47.288;18.646;2022-10-16T04:12:18;100515.50;;;10.30;78.12
74218;BME280;62579;47.288;18.646;2022-10-16T04:14:44;100513.25;;;10.29;78.23
74218;BME280;62579;47.288;18.646;2022-10-16T04:19:54;100509.94;;;10.19;78.62
74218;BME280;62579;47.288;18.646;2022-10-16T04:22:19;100509.56;;;10.11;79.29
74218;BME280;62579;47.288;18.646;2022-10-16T04:24:45;100516.44;;;10.07;79.60
74218;BME280;62579;47.288;18.646;2022-10-16T04:27:10;100512.22;;;10.06;79.26
74218;BME280;62579;47.288;18.646;2022-10-16T04:29:35;100518.81;;;9.99;79.38
74218;BME280;62579;47.288;18.646;2022-10-16T04:32:00;100521.38;;;9.88;80.36
74218;BME280;62579;47.288;18.646;2022-10-16T04:34:26;100514.44;;;9.87;80.24
74218;BME280;62579;47.288;18.646;2022-10-16T04:36:51;100514.84;;;9.80;80.46
74218;BME280;62579;47.288;18.646;2022-10-16T04:39:16;100504.06;;;9.86;79.88
74218;BME280;62579;47.288;18.646;2022-10-16T04:41:41;100512.69;;;9.84;79.89
74218;BME280;62579;47.288;18.646;2022-10-16T04:44:07;100508.94;;;9.82;79.59
74218;BME280;62579;47.288;18.646;2022-10-16T04:49:01;100505.94;;;9.80;79.24
74218;BME280;62579;47.288;18.646;2022-10-16T04:51:26;100500.44;;;9.74;79.39
74218;BME280;62579;47.288;18.646;2022-10-16T04:53:52;100507.84;;;9.74;78.96
74218;BME280;62579;47.288;18.646;2022-10-16T04:56:17;100510.12;;;9.60;79.52
74218;BME280;62579;47.288;18.646;2022-10-16T04:58:43;100516.44;;;9.52;80.00
74218;BME280;62579;47.288;18.646;2022-10-16T05:01:08;100511.28;;;9.54;79.61
74218;BME280;62579;47.288;18.646;2022-10-16T05:03:33;100512.84;;;9.60;79.58
74218;BME280;62579;47.288;18.646;2022-10-16T05:05:59;100512.97;;;9.51;79.97
74218;BME280;62579;47.288;18.646;2022-10-16T05:08:24;100511.75;;;9.52;79.67
74218;BME280;62579;47.288;18.646;2022-10-16T05:10:49;100513.34;;;9.59;79.29
74218;BME280;62579;47.288;18.646;2022-10-16T05:13:14;100525.22;;;9.61;79.14
74218;BME280;62579;47.288;18.646;2022-10-16T05:15:39;100521.28;;;9.62;79.25
74218;BME280;62579;47.288;18.646;2022-10-16T05:18:05;100523.03;;;9.65;79.17
74218;BME280;62579;47.288;18.646;2022-10-16T05:20:30;100524.38;;;9.70;78.77
74218;BME280;62579;47.288;18.646;2022-10-16T05:22:55;100529.13;;;9.75;78.58
74218;BME280;62579;47.288;18.646;2022-10-16T05:25:21;100530.94;;;9.63;79.50
74218;BME280;62579;47.288;18.646;2022-10-16T05:27:49;100538.63;;;9.65;79.52
74218;BME280;62579;47.288;18.646;2022-10-16T05:30:15;100535.34;;;9.61;79.90
74218;BME280;62579;47.288;18.646;2022-10-16T05:32:40;100540.91;;;9.52;80.28
74218;BME280;62579;47.288;18.646;2022-10-16T05:35:06;100535.06;;;9.59;80.11
74218;BME280;62579;47.288;18.646;2022-10-16T05:37:31;100536.09;;;9.61;80.98
74218;BME280;62579;47.288;18.646;2022-10-16T05:39:56;100538.41;;;9.68;80.98
74218;BME280;62579;47.288;18.646;2022-10-16T05:42:22;100546.72;;;9.80;80.71
74218;BME280;62579;47.288;18.646;2022-10-16T05:44:47;100542.78;;;9.81;80.53
74218;BME280;62579;47.288;18.646;2022-10-16T05:47:12;100544.41;;;9.93;80.60
74218;BME280;62579;47.288;18.646;2022-10-16T05:49:39;100552.88;;;9.95;81.41
74218;BME280;62579;47.288;18.646;2022-10-16T05:52:04;100555.44;;;10.04;81.39
74218;BME280;62579;47.288;18.646;2022-10-16T05:54:29;100561.06;;;10.15;81.54
74218;BME280;62579;47.288;18.646;2022-10-16T05:56:54;100567.34;;;10.21;81.70
74218;BME280;62579;47.288;18.646;2022-10-16T05:59:19;100569.63;;;10.28;81.29
74218;BME280;62579;47.288;18.646;2022-10-16T06:01:45;100574.00;;;10.40;80.65
74218;BME280;62579;47.288;18.646;2022-10-16T06:04:10;100577.81;;;10.48;80.42
74218;BME280;62579;47.288;18.646;2022-10-16T06:06:35;100582.63;;;10.59;80.02
74218;BME280;62579;47.288;18.646;2022-10-16T06:09:01;100590.09;;;10.64;79.95
74218;BME280;62579;47.288;18.646;2022-10-16T06:11:28;100590.50;;;10.77;79.81
74218;BME280;62579;47.288;18.646;2022-10-16T06:13:54;100591.31;;;10.83;79.85
74218;BME280;62579;47.288;18.646;2022-10-16T06:16:21;100596.37;;;10.96;79.41
74218;BME280;62579;47.288;18.646;2022-10-16T06:18:46;100600.66;;;11.02;79.24
74218;BME280;62579;47.288;18.646;2022-10-16T06:21:22;100602.44;;;11.05;79.42
74218;BME280;62579;47.288;18.646;2022-10-16T06:23:49;100602.75;;;11.13;79.14
74218;BME280;62579;47.288;18.646;2022-10-16T06:26:17;100593.16;;;11.23;78.70
74218;BME280;62579;47.288;18.646;2022-10-16T06:28:42;100602.56;;;11.22;78.58
74218;BME280;62579;47.288;18.646;2022-10-16T06:31:08;100611.91;;;11.15;78.94
74218;BME280;62579;47.288;18.646;2022-10-16T06:33:34;100615.41;;;11.16;79.09
74218;BME280;62579;47.288;18.646;2022-10-16T06:38:27;100624.47;;;11.33;78.65
74218;BME280;62579;47.288;18.646;2022-10-16T06:40:53;100620.97;;;11.32;79.00
74218;BME280;62579;47.288;18.646;2022-10-16T06:43:18;100621.78;;;11.38;79.36
74218;BME280;62579;47.288;18.646;2022-10-16T06:45:43;100628.28;;;11.46;79.43
74218;BME280;62579;47.288;18.646;2022-10-16T06:48:14;100632.03;;;11.49;79.19
74218;BME280;62579;47.288;18.646;2022-10-16T06:50:39;100636.81;;;11.60;79.09
74218;BME280;62579;47.288;18.646;2022-10-16T06:53:05;100647.09;;;11.70;78.50
74218;BME280;62579;47.288;18.646;2022-10-16T06:55:30;100640.41;;;11.71;78.35
74218;BME280;62579;47.288;18.646;2022-10-16T06:57:55;100643.50;;;11.84;77.90
74218;BME280;62579;47.288;18.646;2022-10-16T07:00:20;100640.66;;;12.04;77.37
74218;BME280;62579;47.288;18.646;2022-10-16T07:02:45;100649.53;;;11.99;76.33
74218;BME280;62579;47.288;18.646;2022-10-16T07:05:11;100652.34;;;12.11;76.16
74218;BME280;62579;47.288;18.646;2022-10-16T07:07:36;100644.81;;;12.37;75.34
74218;BME280;62579;47.288;18.646;2022-10-16T07:10:01;100644.09;;;12.42;75.38
74218;BME280;62579;47.288;18.646;2022-10-16T07:12:26;100636.87;;;12.39;75.10
74218;BME280;62579;47.288;18.646;2022-10-16T07:14:51;100642.41;;;12.55;75.32
74218;BME280;62579;47.288;18.646;2022-10-16T07:23:02;100648.84;;;12.52;74.31
74218;BME280;62579;47.288;18.646;2022-10-16T07:25:28;100655.38;;;12.66;73.79
74218;BME280;62579;47.288;18.646;2022-10-16T07:27:53;100666.34;;;12.77;74.60
74218;BME280;62579;47.288;18.646;2022-10-16T07:30:20;100673.84;;;12.93;73.71
74218;BME280;62579;47.288;18.646;2022-10-16T07:32:46;100673.59;;;13.02;72.85
74218;BME280;62579;47.288;18.646;2022-10-16T07:35:11;100677.66;;;13.23;73.27
74218;BME280;62579;47.288;18.646;2022-10-16T07:37:36;100678.91;;;13.22;72.08
74218;BME280;62579;47.288;18.646;2022-10-16T07:40:01;100679.94;;;13.31;71.25
74218;BME280;62579;47.288;18.646;2022-10-16T07:42:27;100676.47;;;13.47;71.13
74218;BME280;62579;47.288;18.646;2022-10-16T07:44:52;100680.97;;;13.55;70.76
74218;BME280;62579;47.288;18.646;2022-10-16T07:47:17;100684.94;;;13.60;70.47
74218;BME280;62579;47.288;18.646;2022-10-16T07:49:43;100701.59;;;13.62;70.10
74218;BME280;62579;47.288;18.646;2022-10-16T07:52:08;100686.94;;;13.81;71.16
74218;BME280;62579;47.288;18.646;2022-10-16T07:54:33;100696.62;;;13.88;69.84
74218;BME280;62579;47.288;18.646;2022-10-16T07:56:58;100690.91;;;13.75;69.75
74218;BME280;62579;47.288;18.646;2022-10-16T08:02:12;100695.63;;;13.80;69.78
74218;BME280;62579;47.288;18.646;2022-10-16T08:04:37;100692.41;;;13.87;70.08
74218;BME280;62579;47.288;18.646;2022-10-16T08:07:03;100696.38;;;13.97;69.80
74218;BME280;62579;47.288;18.646;2022-10-16T08:09:28;100696.09;;;14.17;68.71
74218;BME280;62579;47.288;18.646;2022-10-16T08:11:53;100699.34;;;14.10;69.17
74218;BME280;62579;47.288;18.646;2022-10-16T08:14:18;100694.37;;;13.87;69.52
74218;BME280;62579;47.288;18.646;2022-10-16T08:16:44;100706.31;;;14.00;69.42
74218;BME280;62579;47.288;18.646;2022-10-16T08:19:09;100703.31;;;14.20;69.18
74218;BME280;62579;47.288;18.646;2022-10-16T08:21:34;100708.53;;;14.40;69.04
74218;BME280;62579;47.288;18.646;2022-10-16T08:23:59;100709.97;;;14.53;67.94
74218;BME280;62579;47.288;18.646;2022-10-16T08:26:25;100713.44;;;14.64;67.83
74218;BME280;62579;47.288;18.646;2022-10-16T08:28:51;100715.66;;;14.71;68.21
74218;BME280;62579;47.288;18.646;2022-10-16T08:31:16;100703.66;;;14.80;67.60
74218;BME280;62579;47.288;18.646;2022-10-16T08:33:43;100710.59;;;14.97;67.44
74218;BME280;62579;47.288;18.646;2022-10-16T08:36:11;100711.91;;;14.80;66.68
74218;BME280;62579;47.288;18.646;2022-10-16T08:38:37;100714.38;;;14.83;66.69
74218;BME280;62579;47.288;18.646;2022-10-16T08:49:15;100728.22;;;15.08;66.01
74218;BME280;62579;47.288;18.646;2022-10-16T08:51:41;100722.47;;;15.17;65.78
74218;BME280;62579;47.288;18.646;2022-10-16T08:56:50;100730.12;;;15.29;65.64
74218;BME280;62579;47.288;18.646;2022-10-16T08:59:16;100724.06;;;15.36;65.58
74218;BME280;62579;47.288;18.646;2022-10-16T09:01:44;100725.28;;;15.46;65.12
74218;BME280;62579;47.288;18.646;2022-10-16T09:06:56;100727.16;;;15.22;65.18
74218;BME280;62579;47.288;18.646;2022-10-16T09:17:19;100741.81;;;16.06;64.26
74218;BME280;62579;47.288;18.646;2022-10-16T09:19:56;100734.72;;;16.21;63.47
74218;BME280;62579;47.288;18.646;2022-10-16T09:22:25;100730.81;;;16.36;63.40
74218;BME280;62579;47.288;18.646;2022-10-16T09:24:53;100740.00;;;16.38;63.11
74218;BME280;62579;47.288;18.646;2022-10-16T09:27:18;100734.78;;;16.40;62.26
74218;BME280;62579;47.288;18.646;2022-10-16T09:29:44;100745.94;;;16.48;62.47
74218;BME280;62579;47.288;18.646;2022-10-16T09:32:14;100741.81;;;16.60;62.47
74218;BME280;62579;47.288;18.646;2022-10-16T09:34:42;100740.31;;;16.35;62.13
74218;BME280;62579;47.288;18.646;2022-10-16T09:37:09;100743.00;;;16.40;62.31
74218;BME280;62579;47.288;18.646;2022-10-16T09:39:43;100750.31;;;16.62;61.95
74218;BME280;62579;47.288;18.646;2022-10-16T09:42:10;100751.84;;;16.57;61.90
74218;BME280;62579;47.288;18.646;2022-10-16T09:44:35;100746.28;;;16.87;62.90
74218;BME280;62579;47.288;18.646;2022-10-16T09:47:02;100751.63;;;16.98;61.73
74218;BME280;62579;47.288;18.646;2022-10-16T11:19:51;100717.19;;;18.82;55.55
74218;BME280;62579;47.288;18.646;2022-10-16T11:22:26;100705.28;;;18.61;54.44
74218;BME280;62579;47.288;18.646;2022-10-16T11:24:57;100712.91;;;18.81;55.69
74218;BME280;62579;47.288;18.646;2022-10-16T11:27:34;100705.78;;;18.99;55.67
74218;BME280;62579;47.288;18.646;2022-10-16T11:30:02;100703.56;;;18.97;55.49
74218;BME280;62579;47.288;18.646;2022-10-16T11:32:37;100708.66;;;18.80;54.88
74218;BME280;62579;47.288;18.646;2022-10-16T11:35:12;100699.75;;;19.00;54.68
74218;BME280;62579;47.288;18.646;2022-10-16T11:37:41;100696.75;;;19.11;54.32
74218;BME280;62579;47.288;18.646;2022-10-16T11:40:28;100696.66;;;18.91;54.90
74218;BME280;62579;47.288;18.646;2022-10-16T11:43:06;100701.00;;;18.99;53.63
74218;BME280;62579;47.288;18.646;2022-10-16T11:45:39;100701.34;;;19.30;53.51
74218;BME280;62579;47.288;18.646;2022-10-16T11:48:12;100706.72;;;19.48;53.96
74218;BME280;62579;47.288;18.646;2022-10-16T11:50:43;100701.13;;;19.41;54.06
74218;BME280;62579;47.288;18.646;2022-10-16T11:55:45;100705.66;;;19.72;53.70
74218;BME280;62579;47.288;18.646;2022-10-16T12:03:26;100694.53;;;19.64;53.26
74218;BME280;62579;47.288;18.646;2022-10-16T12:05:55;100695.41;;;19.59;53.60
74218;BME280;62579;47.288;18.646;2022-10-16T12:08:23;100690.25;;;19.76;52.72
74218;BME280;62579;47.288;18.646;2022-10-16T12:10:49;100684.97;;;19.86;51.71
74218;BME280;62579;47.288;18.646;2022-10-16T13:19:42;100677.06;;;20.75;49.66
74218;BME280;62579;47.288;18.646;2022-10-16T13:22:16;100679.62;;;20.65;49.73
74218;BME280;62579;47.288;18.646;2022-10-16T13:29:53;100688.91;;;20.83;49.16
74218;BME280;62579;47.288;18.646;2022-10-16T13:32:20;100687.94;;;20.73;48.87
74218;BME280;62579;47.288;18.646;2022-10-16T13:34:46;100692.25;;;20.53;48.93
74218;BME280;62579;47.288;18.646;2022-10-16T13:37:16;100687.16;;;20.65;49.68
74218;BME280;62579;47.288;18.646;2022-10-16T13:39:41;100689.72;;;20.63;49.03
74218;BME280;62579;47.288;18.646;2022-10-16T13:42:10;100690.56;;;20.86;48.99
74218;BME280;62579;47.288;18.646;2022-10-16T13:44:42;100695.38;;;20.93;49.29
74218;BME280;62579;47.288;18.646;2022-10-16T16:02:30;100757.44;;;19.11;52.97
74218;BME280;62579;47.288;18.646;2022-10-16T16:04:56;100748.66;;;18.87;53.31
74218;BME280;62579;47.288;18.646;2022-10-16T16:07:21;100753.97;;;18.85;53.23
74218;BME280;62579;47.288;18.646;2022-10-16T16:09:47;100749.81;;;18.91;53.53
74218;BME280;62579;47.288;18.646;2022-10-16T16:12:12;100759.50;;;18.85;53.99
74218;BME280;62579;47.288;18.646;2022-10-16T16:14:37;100764.56;;;18.81;54.29
74218;BME280;62579;47.288;18.646;2022-10-16T16:17:02;100765.75;;;18.72;54.27
74218;BME280;62579;47.288;18.646;2022-10-16T16:19:28;100770.19;;;18.75;54.76
74218;BME280;62579;47.288;18.646;2022-10-16T16:21:53;100769.78;;;18.71;55.29
74218;BME280;62579;47.288;18.646;2022-10-16T16:24:18;100775.31;;;18.71;55.91
74218;BME280;62579;47.288;18.646;2022-10-16T16:26:44;100781.66;;;18.66;56.27
74218;BME280;62579;47.288;18.646;2022-10-16T16:29:11;100777.72;;;18.62;56.21
74218;BME280;62579;47.288;18.646;2022-10-16T16:31:37;100787.38;;;18.55;56.44
74218;BME280;62579;47.288;18.646;2022-10-16T16:34:02;100789.00;;;18.45;56.82
74218;BME280;62579;47.288;18.646;2022-10-16T16:36:28;100795.34;;;18.27;56.77
74218;BME280;62579;47.288;18.646;2022-10-16T16:38:53;100804.06;;;17.99;57.72
74218;BME280;62579;47.288;18.646;2022-10-16T16:41:20;100811.09;;;17.81;58.57
74218;BME280;62579;47.288;18.646;2022-10-16T16:43:45;100817.28;;;17.69;58.72
74218;BME280;62579;47.288;18.646;2022-10-16T16:46:12;100824.03;;;17.68;58.96
74218;BME280;62579;47.288;18.646;2022-10-16T16:48:38;100828.22;;;17.56;59.59
74218;BME280;62579;47.288;18.646;2022-10-16T16:51:04;100828.03;;;17.48;59.79
74218;BME280;62579;47.288;18.646;2022-10-16T16:53:29;100831.44;;;17.35;59.26
74218;BME280;62579;47.288;18.646;2022-10-16T16:55:54;100831.88;;;17.21;59.68
74218;BME280;62579;47.288;18.646;2022-10-16T16:58:20;100838.25;;;17.10;59.77
74218;BME280;62579;47.288;18.646;2022-10-16T17:00:48;100836.94;;;16.93;60.36
74218;BME280;62579;47.288;18.646;2022-10-16T17:03:13;100841.31;;;16.83;61.15
74218;BME280;62579;47.288;18.646;2022-10-16T17:05:38;100842.84;;;16.78;61.30
74218;BME280;62579;47.288;18.646;2022-10-16T17:08:06;100843.81;;;16.80;61.53
74218;BME280;62579;47.288;18.646;2022-10-16T17:10:31;100850.47;;;16.66;62.74
74218;BME280;62579;47.288;18.646;2022-10-16T17:12:56;100860.44;;;16.69;62.53
74218;BME280;62579;47.288;18.646;2022-10-16T17:15:21;100861.03;;;16.57;62.47
74218;BME280;62579;47.288;18.646;2022-10-16T17:17:47;100867.09;;;16.44;62.23
74218;BME280;62579;47.288;18.646;2022-10-16T17:20:12;100868.81;;;16.17;63.00
74218;BME280;62579;47.288;18.646;2022-10-16T17:22:37;100871.44;;;15.93;63.89
74218;BME280;62579;47.288;18.646;2022-10-16T17:25:02;100876.56;;;15.73;64.62
74218;BME280;62579;47.288;18.646;2022-10-16T17:27:28;100880.13;;;15.62;65.02
74218;BME280;62579;47.288;18.646;2022-10-16T17:29:53;100884.09;;;15.61;65.23
74218;BME280;62579;47.288;18.646;2022-10-16T17:32:18;100892.88;;;15.48;65.60
74218;BME280;62579;47.288;18.646;2022-10-16T17:34:45;100886.41;;;15.51;65.67
74218;BME280;62579;47.288;18.646;2022-10-16T17:37:10;100899.34;;;15.56;65.53
74218;BME280;62579;47.288;18.646;2022-10-16T17:39:35;100896.34;;;15.54;66.08
74218;BME280;62579;47.288;18.646;2022-10-16T17:42:00;100897.59;;;15.53;66.38
74218;BME280;62579;47.288;18.646;2022-10-16T17:44:26;100894.63;;;15.40;66.43
74218;BME280;62579;47.288;18.646;2022-10-16T17:46:52;100892.62;;;15.46;66.36
74218;BME280;62579;47.288;18.646;2022-10-16T17:49:17;100899.41;;;15.29;67.32
74218;BME280;62579;47.288;18.646;2022-10-16T17:51:43;100902.66;;;15.27;67.09
74218;BME280;62579;47.288;18.646;2022-10-16T17:54:08;100904.91;;;15.12;66.99
74218;BME280;62579;47.288;18.646;2022-10-16T17:56:35;100917.41;;;14.91;67.61
74218;BME280;62579;47.288;18.646;2022-10-16T17:59:00;100917.41;;;14.80;67.67
74218;BME280;62579;47.288;18.646;2022-10-16T18:01:36;100928.37;;;14.58;68.06
74218;BME280;62579;47.288;18.646;2022-10-16T18:04:05;100936.31;;;14.39;68.53
74218;BME280;62579;47.288;18.646;2022-10-16T18:06:31;100928.56;;;14.26;68.86
74218;BME280;62579;47.288;18.646;2022-10-16T18:17:23;100930.50;;;14.09;69.30
74218;BME280;62579;47.288;18.646;2022-10-16T18:19:49;100942.69;;;13.97;69.90
74218;BME280;62579;47.288;18.646;2022-10-16T18:22:14;100933.47;;;13.95;69.97
74218;BME280;62579;47.288;18.646;2022-10-16T18:24:40;100926.28;;;14.03;70.02
74218;BME280;62579;47.288;18.646;2022-10-16T18:27:05;100938.00;;;14.09;70.20
74218;BME280;62579;47.288;18.646;2022-10-16T18:29:30;100931.25;;;14.10;69.89
74218;BME280;62579;47.288;18.646;2022-10-16T18:31:55;100930.03;;;14.11;69.76
74218;BME280;62579;47.288;18.646;2022-10-16T18:34:21;100934.50;;;14.08;69.94
74218;BME280;62579;47.288;18.646;2022-10-16T18:36:46;100938.44;;;14.02;70.19
74218;BME280;62579;47.288;18.646;2022-10-16T18:39:12;100942.69;;;13.97;70.67
74218;BME280;62579;47.288;18.646;2022-10-16T18:41:38;100942.44;;;13.95;70.53
74218;BME280;62579;47.288;18.646;2022-10-16T18:44:03;100934.94;;;13.84;70.86
74218;BME280;62579;47.288;18.646;2022-10-16T18:46:29;100941.59;;;13.78;71.00
74218;BME280;62579;47.288;18.646;2022-10-16T18:48:55;100945.03;;;13.62;71.25
74218;BME280;62579;47.288;18.646;2022-10-16T18:51:21;100935.53;;;13.52;71.69
74218;BME280;62579;47.288;18.646;2022-10-16T18:53:50;100945.94;;;13.48;71.31
74218;BME280;62579;47.288;18.646;2022-10-16T18:56:17;100947.88;;;13.36;71.59
74218;BME280;62579;47.288;18.646;2022-10-16T18:58:43;100953.75;;;13.23;72.15
74218;BME280;62579;47.288;18.646;2022-10-16T19:01:10;100949.75;;;13.19;72.39
74218;BME280;62579;47.288;18.646;2022-10-16T19:03:35;100956.75;;;13.26;71.89
74218;BME280;62579;47.288;18.646;2022-10-16T19:06:03;100950.41;;;13.08;72.46